aviador You're here:

KMAW Decoded Metar

in
Report Time2017-10-21 15:55:00
UTC Time2017-10-21 15:53:13
Flight Rules vfr VFR
Wind160° at 11 kt
W.Decomp.*RWY 18: 10.3 kt HW 3.8 kt LCW
RWY 14: 10.3 kt HW 3.8 kt RCW
W.Rank160° ranks 7
Current wind is above 160° avg. (7.5)
Visibility9999 m
Phenomena:N/A
Clouds:Scattered 030 Hf
Scattered 036 Hf
Expected CloudBase > 4,400 ft AGL from Temp-Dew spread
CeilingNone
Temp23°C
Dew Point12°C (50% RH)
AAT19.7°C
QNH1020 hPa
Raw Report
KMAW 211555Z AUTO 16011KT 10SM SCT030 SCT036 23/12 A3013 RMK
AO2=

Extra information for KMAW:More info

Social comments